Skip Navigation LinksHome page > Weather > Current weather Skip Navigation Links

Current Weather

Rochelle Muni Airport-Koritz Field, Rochelle, Ill.

For information only: do not use for flight planning or navigation.
Latest weather
Observation time Tuesday, September 17, 2019 1:55 AM CDT
Local time Tuesday, September 17, 2019 2:05 AM CDT
Flight conditions Low Instrument Meteorological Conditions
Winds
Wind direction East-Southeast (120°)
Wind speed 5 mph
Visibility 0.5 mi.
Present weather fog
Sky condition
Ceiling 200 ft. overcast
Cloud layer overcast 200 ft.
Temperature 62°F
Dewpoint 62°F
Altimeter 30.16 in.Hg
Derived measurements
Relative humidity 100%
Density altitude 942 ft.
Remarks
Fully automated report.
Automated weather observing station with precipitation discriminator.
METAR KRPJ 170655Z AUTO 12004KT 1/2SM FG OVC002 17/17 A3016 RMK AO2 T01650165

Settings

Location code

InnerDrive.Weather 4.0.6770.0 Release CLR 4.0.30319.42000
Copyright ©2018 Inner Drive Technology. All rights reserved. Portions Copyright ©1986-2018 David Braverman.

Find weather

Site navigation


Skip Navigation Links

Place info

Page info

PayPal - The safer, easier way to pay online!

Return home.

Copyright ©2019 Inner Drive Technology. Purveyors of fine, hand-crafted computer software. Page printed 2019-09-17T07:05:01 UTC.